Normandin, Canada
Current Conditions -  °F | °C
As of 7:00 PM on Wednesday 26 Nov 2014 (Local Time) from CYRJ Reporting Station
Overcast Overcast  
Wind Chill: 15°   Ceiling: 3500
Heat Index: 23°   Visibility: 25mi
Dew Point: 16°   Wind: 7mph
Humidity: 74%   Direction: 330°NNW
Pressure: 30.23"   Gusts: NA
Location:  48.83°N, 72.52°W
Report Text: CYRJ 270000Z 33006KT 25SM OVC035 M05/M09 A3023 RMK SC8 SLP250
Loading
Personal Weather Stations






























Interactive Weather Map New forecast layout! Learn more

10-Day Weather Forecast

Advertisements
Track Severe Weather on mobile